createdAt,value
2023-10-26T00:04:14.719Z,978.82
2023-10-26T00:09:11.685Z,978.85
2023-10-26T00:14:11.291Z,978.91
2023-10-26T00:19:18.653Z,978.95
2023-10-26T00:24:11.438Z,979.10
2023-10-26T00:29:12.006Z,979.17
2023-10-26T00:34:10.944Z,979.16
2023-10-26T00:39:11.943Z,979.23
2023-10-26T00:44:13.808Z,979.29
2023-10-26T00:49:11.928Z,979.37
2023-10-26T00:54:10.590Z,979.43
2023-10-26T00:59:10.515Z,979.54
2023-10-26T01:04:10.526Z,979.53
2023-10-26T01:09:10.433Z,979.54
2023-10-26T01:14:10.337Z,979.64
2023-10-26T01:19:10.251Z,979.71
2023-10-26T01:24:10.245Z,979.75
2023-10-26T01:29:10.140Z,979.70
2023-10-26T01:34:10.117Z,979.81
2023-10-26T01:39:10.121Z,979.76
2023-10-26T01:44:10.035Z,979.79
2023-10-26T01:49:10.009Z,979.83
2023-10-26T01:54:10.860Z,979.81
2023-10-26T01:59:09.900Z,979.85
2023-10-26T02:04:09.829Z,979.95
2023-10-26T02:09:09.798Z,979.90
2023-10-26T02:14:09.768Z,979.92
2023-10-26T02:19:09.708Z,979.96
2023-10-26T02:24:09.904Z,980.11
2023-10-26T02:29:09.667Z,980.12
2023-10-26T02:34:09.563Z,980.17
2023-10-26T02:39:09.492Z,980.17
2023-10-26T02:44:09.448Z,980.15
2023-10-26T02:49:09.366Z,980.22
2023-10-26T02:54:09.468Z,980.31
2023-10-26T02:59:10.211Z,980.33
2023-10-26T03:04:09.263Z,980.32
2023-10-26T03:09:09.217Z,980.24
2023-10-26T03:14:09.061Z,980.38
2023-10-26T03:19:09.057Z,980.36
2023-10-26T03:24:09.027Z,980.34
2023-10-26T03:29:08.973Z,980.44
2023-10-26T03:34:08.948Z,980.43
2023-10-26T03:39:08.825Z,980.34
2023-10-26T03:44:08.885Z,980.36
2023-10-26T03:49:08.732Z,980.29
2023-10-26T03:54:08.718Z,980.34
2023-10-26T03:59:08.528Z,980.35
2023-10-26T04:04:08.516Z,980.31
2023-10-26T04:09:08.690Z,980.32
2023-10-26T04:14:08.410Z,980.38
2023-10-26T04:19:08.395Z,980.40
2023-10-26T04:24:08.380Z,980.40
2023-10-26T04:29:08.431Z,980.32
2023-10-26T04:58:32.141Z,980.51
2023-10-26T05:03:32.171Z,980.43
2023-10-26T05:08:32.062Z,980.45
2023-10-26T05:13:32.060Z,980.49
2023-10-26T05:18:32.007Z,980.46
2023-10-26T05:23:31.942Z,980.44
2023-10-26T05:28:31.911Z,980.48
2023-10-26T05:33:33.432Z,980.34
2023-10-26T05:38:31.703Z,980.29
2023-10-26T05:43:31.809Z,980.26
2023-10-26T05:48:31.609Z,980.29
2023-10-26T05:53:31.617Z,980.24
2023-10-26T06:56:58.804Z,980.62
2023-10-26T07:02:09.408Z,980.48
2023-10-26T07:06:59.814Z,980.53
2023-10-26T07:11:58.753Z,980.58
2023-10-26T07:16:58.789Z,980.58
2023-10-26T07:21:58.684Z,980.57
2023-10-26T07:26:58.596Z,980.57
2023-10-26T07:31:58.561Z,980.52
2023-10-26T07:36:58.558Z,980.52
2023-10-26T07:42:07.162Z,980.51
2023-10-26T07:46:59.483Z,980.46
2023-10-26T07:51:58.259Z,980.49
2023-10-26T07:56:58.336Z,980.34
2023-10-26T08:01:58.649Z,980.34
2023-10-26T08:06:58.099Z,980.50
2023-10-26T08:11:58.023Z,980.36
2023-10-26T08:16:58.082Z,980.40
2023-10-26T08:21:58.020Z,980.43
2023-10-26T08:26:57.924Z,980.39
2023-10-26T08:31:59.991Z,980.34
2023-10-26T08:41:57.746Z,980.51
2023-10-26T08:46:57.718Z,980.57
2023-10-26T08:51:57.594Z,980.52
2023-10-26T08:56:57.566Z,980.57
2023-10-26T09:01:57.618Z,980.66
2023-10-26T09:06:57.449Z,980.84
2023-10-26T09:11:57.439Z,980.81
2023-10-26T09:16:57.491Z,980.74
2023-10-26T09:21:57.361Z,980.91
2023-10-26T09:26:57.196Z,980.95
2023-10-26T09:31:57.193Z,980.88
2023-10-26T09:36:57.085Z,980.77
2023-10-26T09:41:57.143Z,980.83
2023-10-26T09:46:56.963Z,980.80
2023-10-26T09:51:56.985Z,980.78
2023-10-26T09:56:56.880Z,980.76
2023-10-26T10:01:57.184Z,980.71
2023-10-26T10:06:56.935Z,980.74
2023-10-26T10:11:56.697Z,980.73
2023-10-26T10:16:56.750Z,980.79
2023-10-26T10:21:56.627Z,980.67
2023-10-26T10:26:56.569Z,980.70
2023-10-26T10:31:56.521Z,980.70
2023-10-26T10:36:56.463Z,980.67
2023-10-26T10:41:56.359Z,980.53
2023-10-26T10:46:56.403Z,980.53
2023-10-26T10:51:58.431Z,980.50
2023-10-26T10:56:56.213Z,980.42
2023-10-26T11:01:56.156Z,980.50
2023-10-26T11:06:56.159Z,980.50
2023-10-26T11:11:56.150Z,980.39
2023-10-26T11:16:56.124Z,980.27
2023-10-26T11:21:55.956Z,980.14
2023-10-26T11:26:55.988Z,979.97
2023-10-26T11:31:55.870Z,980.08
2023-10-26T11:36:55.863Z,979.97
2023-10-26T11:41:55.821Z,979.88
2023-10-26T11:46:55.723Z,979.92
2023-10-26T11:51:59.875Z,979.80
2023-10-26T11:56:56.722Z,979.91
2023-10-26T12:01:55.500Z,979.79
2023-10-26T12:06:55.489Z,979.83
2023-10-26T12:11:55.424Z,979.86
2023-10-26T12:16:55.357Z,979.95
2023-10-26T12:21:57.073Z,979.92
2023-10-26T12:26:55.226Z,979.92
2023-10-26T12:31:55.212Z,979.95
2023-10-26T12:36:55.329Z,979.91
2023-10-26T12:41:55.161Z,979.89
2023-10-26T12:46:55.112Z,979.95
2023-10-26T12:51:55.119Z,979.89
2023-10-26T12:56:55.019Z,979.74
2023-10-26T13:01:55.048Z,979.61
2023-10-26T13:06:54.934Z,979.64
2023-10-26T13:11:54.961Z,979.49
2023-10-26T13:16:57.833Z,979.43
2023-10-26T13:21:54.623Z,979.43
2023-10-26T13:26:54.588Z,979.42
2023-10-26T13:31:54.508Z,979.21
2023-10-26T13:36:54.460Z,979.23
2023-10-26T13:41:54.406Z,979.22
2023-10-26T13:46:54.370Z,979.15
2023-10-26T13:51:54.310Z,979.17
2023-10-26T13:56:54.247Z,979.18
2023-10-26T14:01:54.195Z,979.15
2023-10-26T14:06:54.182Z,979.09
2023-10-26T14:11:54.079Z,979.16
2023-10-26T14:16:54.094Z,979.15
2023-10-26T14:21:54.034Z,979.03
2023-10-26T14:26:53.887Z,979.02
2023-10-26T14:31:53.855Z,978.98
2023-10-26T14:36:53.871Z,978.98
2023-10-26T14:41:53.913Z,978.99
2023-10-26T14:46:53.848Z,978.99
2023-10-26T14:51:53.665Z,979.05
2023-10-26T14:56:53.568Z,978.98
2023-10-26T15:01:53.566Z,979.00
2023-10-26T15:06:53.533Z,978.99
2023-10-26T15:11:58.094Z,978.99
2023-10-26T15:16:54.378Z,978.85
2023-10-26T15:21:53.304Z,978.87
2023-10-26T15:26:53.234Z,978.86
2023-10-26T15:31:53.229Z,978.87
2023-10-26T15:36:53.214Z,978.78
2023-10-26T15:41:53.101Z,978.83
2023-10-26T15:46:53.063Z,978.83
2023-10-26T15:51:53.095Z,978.84
2023-10-26T15:56:52.944Z,978.83
2023-10-26T16:01:52.989Z,978.90
2023-10-26T16:06:52.854Z,978.83
2023-10-26T16:11:52.803Z,978.81
2023-10-26T16:16:52.777Z,978.74
2023-10-26T16:21:53.019Z,978.78
2023-10-26T16:26:52.718Z,978.83
2023-10-26T16:31:52.625Z,978.93
2023-10-26T16:36:52.564Z,978.96
2023-10-26T16:41:52.434Z,979.00
2023-10-26T16:46:52.509Z,979.06
2023-10-26T16:51:52.400Z,979.09
2023-10-26T16:56:52.261Z,979.15
2023-10-26T17:01:52.271Z,979.17
2023-10-26T17:06:53.386Z,979.19
2023-10-26T17:11:52.129Z,979.05
2023-10-26T17:16:52.123Z,979.05
2023-10-26T17:21:52.056Z,979.04
2023-10-26T17:26:52.429Z,978.95
